Time;durP1;ratioP1;P1;durP2;ratioP2;P2;SDS_P1;SDS_P2;PMS_P1;PMS_P2;Temp;Humidity;BMP_temperature;BMP_pressure;BME280_temperature;BME280_humidity;BME280_pressure;Samples;Min_cycle;Max_cycle;Signal;HPM_P1;HPM_P2
2022/08/06 00:02:19;;;;;;;44.50;41.85;;;;;;;20.80;100.00;100697.63;5035085;28;20465;-81
2022/08/06 00:04:46;;;;;;;45.78;42.58;;;;;;;20.55;100.00;100693.09;5036232;28;20053;-79
2022/08/06 00:07:15;;;;;;;50.47;47.67;;;;;;;21.28;100.00;100689.88;5035586;28;20049;-78
2022/08/06 00:09:42;;;;;;;34.92;32.72;;;;;;;21.28;100.00;100690.69;5031248;28;20406;-78
2022/08/06 00:12:09;;;;;;;38.67;36.28;;;;;;;21.01;100.00;100693.78;5036037;28;20046;-86
2022/08/06 00:14:36;;;;;;;37.05;34.75;;;;;;;20.95;100.00;100686.78;5035722;28;20493;-82
2022/08/06 00:17:04;;;;;;;40.42;37.85;;;;;;;20.86;100.00;100691.13;5035255;28;20482;-78
2022/08/06 00:19:31;;;;;;;30.88;28.58;;;;;;;21.33;100.00;100694.44;5035359;28;20057;-80
2022/08/06 00:21:58;;;;;;;36.25;33.95;;;;;;;20.69;100.00;100691.44;5035325;28;20042;-79
2022/08/06 00:24:27;;;;;;;38.35;36.05;;;;;;;21.25;100.00;100693.94;5035270;28;20057;-80
2022/08/06 00:26:54;;;;;;;39.85;37.28;;;;;;;21.43;100.00;100697.94;5035324;28;20058;-81
2022/08/06 00:29:20;;;;;;;42.78;39.78;;;;;;;20.69;100.00;100704.13;5035556;28;20512;-81
2022/08/06 00:31:47;;;;;;;36.17;33.70;;;;;;;21.10;100.00;100699.41;5034358;28;20053;-80
2022/08/06 00:34:14;;;;;;;39.58;36.75;;;;;;;20.93;100.00;100694.34;5032087;28;20042;-78
2022/08/06 00:36:41;;;;;;;39.42;36.50;;;;;;;20.91;100.00;100696.53;5035145;28;20050;-82
2022/08/06 00:39:09;;;;;;;33.72;31.33;;;;;;;21.06;100.00;100695.66;5035520;28;20413;-79
2022/08/06 00:41:38;;;;;;;34.67;32.17;;;;;;;21.47;100.00;100688.19;5035054;28;20060;-80
2022/08/06 00:44:06;;;;;;;35.33;32.97;;;;;;;20.88;100.00;100699.78;5034405;28;20093;-77
2022/08/06 00:46:32;;;;;;;34.25;31.95;;;;;;;21.37;100.00;100699.06;5033668;28;20071;-80
2022/08/06 00:48:59;;;;;;;33.53;31.33;;;;;;;21.38;100.00;100697.16;5035254;28;20050;-83
2022/08/06 00:51:26;;;;;;;35.35;33.10;;;;;;;20.79;100.00;100707.63;5035418;28;20383;-79
2022/08/06 00:53:54;;;;;;;33.65;31.45;;;;;;;20.96;100.00;100706.47;5034813;28;20387;-79
2022/08/06 00:56:21;;;;;;;30.60;28.48;;;;;;;21.26;100.00;100697.44;5034765;28;20061;-82
2022/08/06 00:58:49;;;;;;;33.03;30.73;;;;;;;21.23;100.00;100698.00;5034599;28;20111;-77
2022/08/06 01:01:16;;;;;;;31.83;29.63;;;;;;;20.85;100.00;100705.72;5029767;28;20085;-81
2022/08/06 01:03:43;;;;;;;34.08;31.77;;;;;;;20.95;100.00;100707.56;5033768;28;20064;-83
2022/08/06 01:06:10;;;;;;;34.55;31.83;;;;;;;21.09;100.00;100703.22;5033121;28;20064;-79
2022/08/06 01:08:37;;;;;;;34.83;32.38;;;;;;;21.20;100.00;100709.34;5032246;28;20486;-78
2022/08/06 01:11:04;;;;;;;34.92;32.25;;;;;;;20.59;100.00;100711.16;5034661;28;20060;-82
2022/08/06 01:13:31;;;;;;;33.90;31.48;;;;;;;20.48;100.00;100714.91;5034160;28;20049;-79
2022/08/06 01:16:10;;;;;;;31.45;29.20;;;;;;;20.64;100.00;100714.94;5034974;28;20556;-77
2022/08/06 01:18:45;;;;;;;33.17;30.73;;;;;;;20.65;100.00;100706.56;5034608;28;20092;-78
2022/08/06 01:21:24;;;;;;;33.00;30.40;;;;;;;20.88;100.00;100707.88;5034514;28;20057;-81
2022/08/06 01:24:30;;;;;;;34.47;31.45;;;;;;;20.54;100.00;100699.56;5034138;28;20410;-81
2022/08/06 01:27:05;;;;;;;36.78;33.95;;;;;;;20.09;100.00;100703.88;5000992;28;20057;-79
2022/08/06 01:29:38;;;;;;;31.02;28.38;;;;;;;19.92;100.00;100706.06;5030591;28;20049;-82
2022/08/06 01:32:10;;;;;;;31.17;28.77;;;;;;;20.30;100.00;100704.69;5031963;28;20049;-79
2022/08/06 01:34:41;;;;;;;32.33;30.05;;;;;;;20.52;100.00;100702.56;5033288;28;20170;-79
2022/08/06 01:37:14;;;;;;;34.92;32.22;;;;;;;21.00;100.00;100702.97;5033011;28;20376;-78
2022/08/06 01:39:45;;;;;;;33.35;30.65;;;;;;;20.29;100.00;100705.78;5032962;28;20052;-80
2022/08/06 01:42:15;;;;;;;36.40;33.70;;;;;;;20.12;100.00;100712.28;5031644;28;20398;-81
2022/08/06 01:44:47;;;;;;;38.72;35.85;;;;;;;19.66;100.00;100709.50;5033948;28;20458;-78
2022/08/06 01:47:18;;;;;;;35.70;33.03;;;;;;;20.19;100.00;100706.59;5033065;28;20410;-81
2022/08/06 01:49:49;;;;;;;36.42;33.92;;;;;;;20.13;100.00;100704.97;5033803;28;20056;-78
2022/08/06 01:52:19;;;;;;;36.70;33.87;;;;;;;20.13;100.00;100704.97;5033634;28;20037;-78
2022/08/06 01:54:50;;;;;;;37.50;34.67;;;;;;;19.72;100.00;100709.53;5033360;28;20308;-82
2022/08/06 01:57:21;;;;;;;34.43;32.13;;;;;;;20.33;100.00;100701.44;5032864;28;20138;-77
2022/08/06 01:59:52;;;;;;;35.25;32.25;;;;;;;19.80;100.00;100709.81;5030501;28;20276;-80
2022/08/06 02:02:22;;;;;;;36.47;33.95;;;;;;;20.26;100.00;100703.63;5143824;23;20139;-77
2022/08/06 02:04:52;;;;;;;38.80;36.10;;;;;;;20.18;100.00;100709.56;5025153;28;20053;-79
2022/08/06 02:07:23;;;;;;;32.88;30.48;;;;;;;20.35;100.00;100702.00;5013456;28;20038;-80
2022/08/06 02:09:53;;;;;;;35.22;32.72;;;;;;;19.97;100.00;100701.47;5017859;28;20054;-81
2022/08/06 02:12:25;;;;;;;34.75;31.85;;;;;;;20.12;100.00;100706.03;5018764;28;20042;-77
2022/08/06 02:14:57;;;;;;;35.40;33.00;;;;;;;20.12;100.00;100704.19;5022764;28;20445;-78
2022/08/06 02:17:28;;;;;;;38.78;36.28;;;;;;;20.11;100.00;100699.84;5017427;28;20112;-79
2022/08/06 02:20:00;;;;;;;35.33;32.85;;;;;;;20.06;100.00;100704.41;5013858;28;20049;-85
2022/08/06 02:22:28;;;;;;;37.05;34.33;;;;;;;19.67;100.00;100705.75;5013565;28;20077;-78
2022/08/06 02:24:58;;;;;;;34.47;31.92;;;;;;;20.00;100.00;100705.50;5013455;28;20053;-78
2022/08/06 02:27:26;;;;;;;34.13;31.83;;;;;;;19.87;100.00;100704.94;5015508;28;20049;-78
2022/08/06 02:29:56;;;;;;;34.70;31.90;;;;;;;19.82;100.00;100710.34;5017100;28;20069;-82
2022/08/06 02:32:23;;;;;;;36.13;33.58;;;;;;;20.02;100.00;100712.25;5006476;28;20045;-78
2022/08/06 02:34:50;;;;;;;34.45;31.95;;;;;;;19.62;100.00;100710.28;5013912;28;20049;-81
2022/08/06 02:37:22;;;;;;;33.47;30.98;;;;;;;19.02;100.00;100715.19;5013191;28;20046;-79
2022/08/06 02:39:53;;;;;;;34.38;31.88;;;;;;;19.04;100.00;100710.34;5013716;28;20076;-77
2022/08/06 02:42:23;;;;;;;34.22;31.83;;;;;;;19.69;100.00;100713.56;5013651;28;20042;-78
2022/08/06 02:45:00;;;;;;;34.22;31.70;;;;;;;19.96;100.00;100710.63;5010839;28;20057;-78
2022/08/06 02:47:33;;;;;;;34.08;31.80;;;;;;;19.99;100.00;100711.97;5013064;28;20049;-79
2022/08/06 02:50:03;;;;;;;36.55;34.03;;;;;;;19.81;100.00;100707.91;5019197;28;20128;-78
2022/08/06 02:52:38;;;;;;;33.38;30.95;;;;;;;19.88;100.00;100714.69;5018958;28;20044;-79
2022/08/06 02:55:11;;;;;;;39.35;36.85;;;;;;;19.75;100.00;100711.69;5017973;28;20042;-78
2022/08/06 02:57:42;;;;;;;37.75;35.05;;;;;;;19.78;100.00;100706.56;5011306;28;20056;-81
2022/08/06 03:00:11;;;;;;;35.05;32.45;;;;;;;19.82;100.00;100718.44;5018680;28;20057;-77
2022/08/06 03:02:40;;;;;;;37.42;34.63;;;;;;;19.74;100.00;100718.97;5016771;28;20387;-78
2022/08/06 03:05:11;;;;;;;35.95;33.35;;;;;;;19.65;100.00;100717.88;5022834;28;20072;-81
2022/08/06 03:07:41;;;;;;;35.63;33.03;;;;;;;19.83;100.00;100713.84;5021295;28;20050;-81
2022/08/06 03:10:10;;;;;;;35.05;32.55;;;;;;;19.89;100.00;100718.97;5014722;28;20069;-81
2022/08/06 03:12:38;;;;;;;33.70;31.60;;;;;;;19.99;100.00;100720.88;5015761;28;20046;-81
2022/08/06 03:15:07;;;;;;;34.13;31.70;;;;;;;19.77;100.00;100723.00;5013896;28;20041;-78
2022/08/06 03:17:37;;;;;;;34.85;31.90;;;;;;;19.46;100.00;100717.53;5017188;28;20168;-80
2022/08/06 03:20:06;;;;;;;35.22;32.50;;;;;;;19.86;100.00;100724.91;5022384;28;20410;-80
2022/08/06 03:22:34;;;;;;;33.88;31.55;;;;;;;20.11;100.00;100732.19;5029047;28;20119;-78
2022/08/06 03:25:02;;;;;;;33.00;30.50;;;;;;;20.25;100.00;100728.97;5019508;28;20482;-82
2022/08/06 03:27:30;;;;;;;32.42;29.90;;;;;;;20.21;100.00;100719.78;5016048;28;20072;-82
2022/08/06 03:29:58;;;;;;;34.50;31.65;;;;;;;20.10;100.00;100717.09;5027631;28;20045;-81
2022/08/06 03:32:25;;;;;;;34.38;31.08;;;;;;;20.24;100.00;100722.78;5012522;28;20065;-78
2022/08/06 03:34:54;;;;;;;33.45;31.08;;;;;;;20.38;100.00;100730.31;5012368;28;20057;-79
2022/08/06 03:37:21;;;;;;;30.92;28.63;;;;;;;20.38;100.00;100733.03;5010764;28;20061;-80
2022/08/06 03:39:50;;;;;;;31.83;29.60;;;;;;;20.44;100.00;100732.72;5010940;28;20073;-79
2022/08/06 03:42:18;;;;;;;30.02;27.80;;;;;;;20.26;100.00;100727.91;5007495;28;20045;-81
2022/08/06 03:44:45;;;;;;;31.55;29.15;;;;;;;20.42;100.00;100739.47;5013619;28;20057;-81
2022/08/06 03:47:17;;;;;;;30.65;28.50;;;;;;;20.41;100.00;100727.09;5012381;28;20119;-81
2022/08/06 03:49:51;;;;;;;32.33;29.92;;;;;;;20.33;100.00;100726.56;5011027;28;20410;-81
2022/08/06 03:52:22;;;;;;;31.98;29.70;;;;;;;19.77;100.00;100728.41;5011127;28;20052;-80
2022/08/06 03:54:53;;;;;;;31.27;28.95;;;;;;;20.28;100.00;100736.53;5012063;28;20129;-79
2022/08/06 03:57:25;;;;;;;32.38;29.60;;;;;;;20.13;100.00;100734.63;5009115;28;20401;-80
2022/08/06 03:59:58;;;;;;;;;;;;;;;20.31;100.00;100730.59;5004796;28;20057;-79
2022/08/06 04:02:29;;;;;;;31.40;28.90;;;;;;;20.80;100.00;100732.72;5007698;28;20371;-81
2022/08/06 04:04:58;;;;;;;30.65;28.23;;;;;;;20.67;100.00;100734.09;5007844;28;20050;-79
2022/08/06 04:07:27;;;;;;;30.20;27.90;;;;;;;21.02;100.00;100735.06;5009481;28;20045;-82
2022/08/06 04:09:56;;;;;;;31.15;28.48;;;;;;;20.98;100.00;100742.13;5012446;28;20057;-80
2022/08/06 04:12:25;;;;;;;30.70;28.20;;;;;;;21.13;100.00;100738.56;5007294;28;20128;-78
2022/08/06 04:14:52;;;;;;;29.98;27.85;;;;;;;21.16;100.00;100740.72;5007654;28;20042;-81
2022/08/06 04:17:21;;;;;;;31.02;28.83;;;;;;;21.30;100.00;100738.22;5007759;28;20509;-80
2022/08/06 04:19:49;;;;;;;30.00;27.50;;;;;;;21.31;100.00;100748.75;5012148;28;20049;-82
2022/08/06 04:22:16;;;;;;;30.48;28.10;;;;;;;21.45;100.00;100735.47;5013394;28;20041;-78
2022/08/06 04:24:45;;;;;;;29.05;26.80;;;;;;;21.45;100.00;100747.09;5015443;28;20057;-81
2022/08/06 04:27:14;;;;;;;30.05;27.35;;;;;;;21.30;100.00;100757.91;5016185;28;20057;-78
2022/08/06 04:29:42;;;;;;;28.90;26.80;;;;;;;21.29;100.00;100748.22;5015853;28;20056;-79
2022/08/06 04:32:13;;;;;;;29.10;26.90;;;;;;;21.57;100.00;100751.34;5015348;28;20046;-78
2022/08/06 04:34:43;;;;;;;28.90;26.77;;;;;;;21.42;100.00;100753.06;5014253;28;20045;-78
2022/08/06 04:37:12;;;;;;;30.25;28.05;;;;;;;21.60;100.00;100750.78;5012039;28;20042;-82
2022/08/06 04:39:39;;;;;;;29.70;27.30;;;;;;;21.53;100.00;100744.91;5012936;28;20120;-81
2022/08/06 04:42:08;;;;;;;29.23;26.75;;;;;;;21.77;100.00;100751.25;5014119;28;20081;-81
2022/08/06 04:44:36;;;;;;;29.02;26.90;;;;;;;21.94;100.00;100748.16;5016127;28;20084;-80
2022/08/06 04:47:04;;;;;;;28.95;26.55;;;;;;;21.99;100.00;100753.53;5015611;28;20046;-79
2022/08/06 04:49:32;;;;;;;29.85;27.65;;;;;;;22.15;100.00;100751.53;5015443;28;20045;-80
2022/08/06 04:51:59;;;;;;;30.23;27.92;;;;;;;22.23;100.00;100753.66;5015264;28;20058;-79
2022/08/06 04:54:26;;;;;;;29.40;27.13;;;;;;;22.38;100.00;100755.44;5015523;28;20042;-81
2022/08/06 04:56:52;;;;;;;29.73;27.10;;;;;;;22.48;100.00;100751.81;5015382;28;20394;-81
2022/08/06 04:59:21;;;;;;;29.55;27.25;;;;;;;22.32;100.00;100751.94;5016581;28;20046;-80
2022/08/06 05:01:48;;;;;;;28.50;26.20;;;;;;;22.48;100.00;100752.66;5014014;28;20057;-81
2022/08/06 05:04:15;;;;;;;29.38;27.17;;;;;;;22.58;100.00;100757.94;5016284;28;20050;-81
2022/08/06 05:06:49;;;;;;;28.00;26.00;;;;;;;22.60;100.00;100757.66;5015472;28;20068;-78
2022/08/06 05:09:20;;;;;;;29.17;26.88;;;;;;;22.74;100.00;100757.81;5015325;28;20391;-80
2022/08/06 05:11:52;;;;;;;28.40;26.40;;;;;;;22.56;100.00;100757.41;5015606;28;20053;-81
2022/08/06 05:14:25;;;;;;;28.67;26.48;;;;;;;22.78;100.00;100754.22;5018806;28;20537;-78
2022/08/06 05:16:55;;;;;;;28.25;25.77;;;;;;;22.79;100.00;100747.72;5015060;28;20046;-81
2022/08/06 05:19:29;;;;;;;28.02;25.83;;;;;;;22.99;100.00;100735.88;5015583;28;20454;-80
2022/08/06 05:21:59;;;;;;;27.20;25.00;;;;;;;23.16;100.00;100743.56;5018991;28;20484;-82
2022/08/06 05:24:26;;;;;;;28.77;26.27;;;;;;;22.98;100.00;100741.59;5015642;28;20505;-81
2022/08/06 05:26:53;;;;;;;28.42;26.23;;;;;;;23.27;100.00;100738.84;5013798;28;20054;-79
2022/08/06 05:29:22;;;;;;;28.58;26.45;;;;;;;23.18;100.00;100741.38;5020122;28;20054;-80
2022/08/06 05:31:49;;;;;;;27.45;25.15;;;;;;;23.44;100.00;100751.88;5014087;28;20060;-79
2022/08/06 05:34:16;;;;;;;27.30;25.05;;;;;;;23.49;100.00;100746.41;5011604;28;20046;-81
2022/08/06 05:36:43;;;;;;;28.48;26.38;;;;;;;23.74;100.00;100745.25;5012442;28;20107;-81
2022/08/06 05:39:10;;;;;;;26.95;24.67;;;;;;;23.64;100.00;100757.03;5014809;28;20078;-80
2022/08/06 05:41:37;;;;;;;27.77;25.67;;;;;;;23.93;100.00;100759.63;5015193;28;20077;-77
2022/08/06 05:44:04;;;;;;;28.77;26.55;;;;;;;24.08;100.00;100757.78;5013728;28;20458;-78
2022/08/06 05:46:35;;;;;;;28.40;26.27;;;;;;;23.80;100.00;100748.72;5012081;28;20050;-84
2022/08/06 05:49:06;;;;;;;37.08;34.28;;;;;;;23.36;100.00;100747.09;5015070;28;20457;-79
2022/08/06 05:51:43;;;;;;;36.00;33.50;;;;;;;23.68;100.00;100754.53;5014695;28;20129;-80
2022/08/06 05:54:17;;;;;;;29.17;26.73;;;;;;;24.18;100.00;100744.06;5012609;28;20133;-81
2022/08/06 05:56:47;;;;;;;28.13;26.08;;;;;;;24.38;100.00;100745.59;5012721;28;20050;-81
2022/08/06 05:59:20;;;;;;;28.35;25.83;;;;;;;24.75;100.00;100752.88;5014641;28;20061;-81
2022/08/06 06:01:50;;;;;;;31.42;28.15;;;;;;;24.75;100.00;100750.16;5007689;28;20402;-81
2022/08/06 06:04:19;;;;;;;32.08;29.10;;;;;;;25.12;100.00;100740.19;5007779;28;20422;-81
2022/08/06 06:06:46;;;;;;;33.08;30.27;;;;;;;25.46;100.00;100737.06;5016578;28;20049;-81
2022/08/06 06:09:14;;;;;;;31.48;28.88;;;;;;;25.55;100.00;100726.25;5016827;28;20041;-79
2022/08/06 06:11:42;;;;;;;30.30;27.75;;;;;;;25.67;100.00;100731.97;5017099;28;20045;-79
2022/08/06 06:14:25;;;;;;;32.28;29.65;;;;;;;26.25;100.00;100733.06;5019903;28;20053;-82
2022/08/06 06:17:02;;;;;;;31.02;28.42;;;;;;;26.80;100.00;100730.00;5014990;28;20057;-79
2022/08/06 06:19:44;;;;;;;31.42;28.95;;;;;;;27.07;100.00;100736.34;5011610;28;20446;-78
2022/08/06 06:22:19;;;;;;;;;;;;;;;27.40;100.00;100726.66;5014085;28;20180;-79
2022/08/06 06:24:53;;;;;;;32.58;29.67;;;;;;;27.49;100.00;100726.69;5017259;28;19944;-78
2022/08/06 06:27:25;;;;;;;34.22;31.33;;;;;;;27.69;100.00;100722.53;5013570;28;20061;-80
2022/08/06 06:29:56;;;;;;;;;;;;;;;27.76;100.00;100722.84;5010350;28;20065;-79
2022/08/06 06:32:38;;;;;;;66.50;54.05;;;;;;;28.16;100.00;100713.66;5011678;28;19921;-80
2022/08/06 06:35:18;;;;;;;41.50;37.03;;;;;;;28.63;100.00;100725.44;5016944;28;20133;-83
2022/08/06 06:37:51;;;;;;;45.28;40.78;;;;;;;28.96;99.30;100716.63;5009977;28;20854;-79
2022/08/06 06:40:34;;;;;;;30.73;27.90;;;;;;;29.02;95.51;100720.81;5009299;28;20045;-81
2022/08/06 06:43:06;;;;;;;29.35;26.85;;;;;;;28.81;95.07;100717.19;5013308;28;20057;-84
2022/08/06 06:45:42;;;;;;;42.35;38.28;;;;;;;28.81;95.36;100726.19;4998529;28;20058;-82
2022/08/06 06:48:27;;;;;;;36.47;33.40;;;;;;;29.15;91.09;100718.94;5003324;28;20042;-78
2022/08/06 06:50:57;;;;;;;37.17;33.92;;;;;;;29.04;89.50;100717.72;5009317;28;20133;-78
2022/08/06 06:53:29;;;;;;;31.02;28.40;;;;;;;28.98;91.70;100719.81;5013611;28;20117;-80
2022/08/06 06:55:59;;;;;;;28.27;25.88;;;;;;;28.98;92.46;100717.88;5012953;28;20049;-80
2022/08/06 06:58:32;;;;;;;37.45;33.78;;;;;;;28.97;92.51;100719.00;5007273;28;20042;-81
2022/08/06 07:00:59;;;;;;;31.58;29.02;;;;;;;28.96;93.24;100722.88;5007367;28;20120;-83
2022/08/06 07:03:29;;;;;;;30.17;27.60;;;;;;;28.98;92.92;100720.59;5012190;28;20061;-81
2022/08/06 07:05:58;;;;;;;57.78;48.65;;;;;;;28.93;90.13;100722.75;5006970;28;20442;-78
2022/08/06 07:08:29;;;;;;;37.70;34.15;;;;;;;28.91;94.19;100717.59;5009546;28;20394;-78
2022/08/06 07:10:58;;;;;;;37.83;34.33;;;;;;;29.04;93.84;100723.19;5004920;28;20060;-80
2022/08/06 07:13:26;;;;;;;31.27;28.45;;;;;;;29.21;93.54;100725.84;5005170;28;20074;-80
2022/08/06 07:15:55;;;;;;;34.60;31.58;;;;;;;29.31;91.91;100725.44;5000008;28;20494;-81
2022/08/06 07:18:26;;;;;;;30.05;27.27;;;;;;;29.52;92.51;100717.22;5008206;28;20047;-79
2022/08/06 07:20:55;;;;;;;37.22;33.83;;;;;;;29.62;90.97;100718.78;5009540;28;20058;-78
2022/08/06 07:23:23;;;;;;;33.40;30.42;;;;;;;29.67;89.20;100718.59;5017431;28;20037;-77
2022/08/06 07:25:51;;;;;;;34.15;31.33;;;;;;;29.83;87.19;100711.34;5022821;28;20052;-81
2022/08/06 07:28:19;;;;;;;40.05;36.47;;;;;;;30.03;87.08;100709.72;5011736;28;20134;-78
2022/08/06 07:30:47;;;;;;;31.15;28.25;;;;;;;29.82;84.27;100715.25;5005950;28;20054;-81
2022/08/06 07:33:15;;;;;;;34.60;31.58;;;;;;;29.94;83.82;100717.22;5008289;28;20112;-81
2022/08/06 07:35:45;;;;;;;34.53;31.63;;;;;;;29.96;83.04;100720.44;5006721;28;20050;-80
2022/08/06 07:38:17;;;;;;;35.03;32.40;;;;;;;29.89;86.19;100720.97;5009768;28;20046;-78
2022/08/06 07:40:48;;;;;;;34.63;31.67;;;;;;;30.04;85.47;100721.47;5016127;28;20397;-81
2022/08/06 07:43:19;;;;;;;37.95;34.45;;;;;;;29.76;84.28;100716.59;5015171;28;20058;-78
2022/08/06 07:45:48;;;;;;;30.50;28.30;;;;;;;30.35;81.78;100721.03;5023186;28;20410;-79
2022/08/06 07:48:18;;;;;;;32.58;29.77;;;;;;;30.61;74.35;100711.69;5009489;28;20101;-78
2022/08/06 07:50:49;;;;;;;37.70;34.70;;;;;;;30.74;76.68;100721.50;5010122;28;20562;-85
2022/08/06 07:53:19;;;;;;;36.17;33.25;;;;;;;30.70;72.62;100712.38;5008341;28;20057;-78
2022/08/06 07:55:47;;;;;;;36.22;33.10;;;;;;;30.71;72.79;100713.97;5016772;28;20050;-77
2022/08/06 07:58:15;;;;;;;33.00;30.33;;;;;;;30.91;71.88;100713.09;5019242;28;20410;-78
2022/08/06 08:00:43;;;;;;;38.55;35.65;;;;;;;31.08;73.66;100712.06;5027697;28;20046;-80
2022/08/06 08:08:42;;;;;;;39.58;36.15;;;;;;;31.43;65.97;100712.34;5014288;28;20045;-81
2022/08/06 08:11:11;;;;;;;34.83;32.33;;;;;;;31.24;63.93;100707.47;5014144;28;20111;-80
2022/08/06 08:13:38;;;;;;;41.67;38.58;;;;;;;31.61;63.49;100707.38;5018499;28;20049;-81
2022/08/06 08:16:07;;;;;;;40.83;37.33;;;;;;;31.72;60.43;100710.44;5016268;28;20047;-81
2022/08/06 08:18:35;;;;;;;43.55;39.95;;;;;;;31.90;58.38;100709.00;5034038;28;20046;-79
2022/08/06 08:21:03;;;;;;;34.13;31.50;;;;;;;31.58;58.08;100715.50;5017779;28;20445;-80
2022/08/06 08:23:31;;;;;;;35.20;32.80;;;;;;;31.63;61.45;100718.03;5012549;28;20426;-78
2022/08/06 08:26:03;;;;;;;33.17;30.83;;;;;;;32.12;61.01;100709.59;5012002;28;20120;-78
2022/08/06 08:28:31;;;;;;;35.03;32.08;;;;;;;31.63;59.36;100702.34;5016007;28;20485;-80
2022/08/06 08:31:01;;;;;;;39.08;35.47;;;;;;;31.62;59.02;100703.50;5015952;28;20445;-81
2022/08/06 08:33:28;;;;;;;34.30;31.73;;;;;;;31.58;59.76;100715.50;5016400;28;20108;-78
2022/08/06 08:35:55;;;;;;;37.05;33.80;;;;;;;31.77;60.89;100706.63;5026488;28;20148;-80
2022/08/06 08:38:23;;;;;;;33.97;31.58;;;;;;;31.53;63.14;100705.59;5026061;28;20045;-81
2022/08/06 08:40:52;;;;;;;31.98;29.60;;;;;;;31.52;63.40;100708.69;5021279;28;20050;-80
2022/08/06 08:43:24;;;;;;;35.05;32.15;;;;;;;31.69;60.04;100700.16;5015186;28;20050;-80
2022/08/06 08:45:53;;;;;;;38.13;35.33;;;;;;;31.68;60.85;100702.09;5018119;28;20057;-78
2022/08/06 08:48:27;;;;;;;31.58;29.20;;;;;;;31.96;57.51;100700.53;5027581;28;20477;-80
2022/08/06 08:50:57;;;;;;;37.05;33.75;;;;;;;32.32;55.42;100694.03;5011888;28;20054;-78
2022/08/06 08:53:34;;;;;;;34.20;31.60;;;;;;;32.39;55.09;100691.44;5019133;28;20061;-78
2022/08/06 08:56:02;;;;;;;34.63;31.98;;;;;;;32.64;59.26;100700.31;5017247;28;20483;-78
2022/08/06 08:58:36;;;;;;;38.13;34.60;;;;;;;32.60;55.19;100694.75;5018097;28;20050;-78
2022/08/06 09:01:06;;;;;;;36.58;33.30;;;;;;;31.91;58.64;100696.06;5016602;28;20053;-83
2022/08/06 09:03:34;;;;;;;33.08;30.67;;;;;;;32.36;53.20;100684.69;5018584;28;20056;-80
2022/08/06 09:06:03;;;;;;;32.60;29.20;;;;;;;32.54;54.25;100692.63;5016571;28;20077;-78
2022/08/06 09:08:31;;;;;;;45.35;41.38;;;;;;;32.83;53.99;100694.09;5014034;28;20077;-78
2022/08/06 09:10:59;;;;;;;40.78;37.63;;;;;;;32.94;52.27;100694.34;5016466;28;20088;-80
2022/08/06 09:13:27;;;;;;;40.65;37.67;;;;;;;32.61;54.28;100685.34;5019970;28;20073;-78
2022/08/06 09:15:56;;;;;;;37.17;34.47;;;;;;;32.68;49.44;100694.91;5017082;28;20042;-78
2022/08/06 09:18:24;;;;;;;36.42;33.65;;;;;;;32.83;50.30;100686.66;5030942;28;20056;-81
2022/08/06 09:20:52;;;;;;;35.72;32.88;;;;;;;32.81;53.75;100685.41;5019555;28;20072;-80
2022/08/06 09:23:19;;;;;;;35.60;32.70;;;;;;;32.74;53.29;100694.31;5017874;28;20045;-78
2022/08/06 09:25:48;;;;;;;36.40;33.80;;;;;;;32.95;53.63;100691.25;5018077;28;20069;-80
2022/08/06 09:28:31;;;;;;;34.28;31.33;;;;;;;33.36;49.52;100690.97;5019322;28;20061;-78
2022/08/06 09:31:01;;;;;;;35.88;33.08;;;;;;;33.12;51.37;100684.56;5021367;28;20050;-79
2022/08/06 09:33:28;;;;;;;35.38;32.40;;;;;;;33.69;50.23;100683.00;5014276;28;20061;-78
2022/08/06 09:35:59;;;;;;;34.50;31.48;;;;;;;33.65;48.58;100686.84;5014320;28;20168;-81
2022/08/06 09:38:27;;;;;;;33.35;30.75;;;;;;;33.87;49.20;100688.88;5021493;28;20133;-82
2022/08/06 09:41:08;;;;;;;33.72;31.13;;;;;;;33.54;48.83;100680.34;5014465;28;20082;-79
2022/08/06 09:43:37;;;;;;;33.67;31.27;;;;;;;32.75;51.13;100684.09;5019428;28;20050;-78
2022/08/06 09:46:07;;;;;;;37.00;33.95;;;;;;;32.32;54.46;100674.78;5015220;28;20053;-78
2022/08/06 09:48:34;;;;;;;34.78;31.95;;;;;;;32.38;54.87;100671.41;5014648;28;20046;-80
2022/08/06 09:51:02;;;;;;;36.38;33.58;;;;;;;32.81;55.17;100674.41;5011506;28;20050;-80
2022/08/06 09:53:29;;;;;;;35.83;32.45;;;;;;;32.83;52.42;100672.91;5011589;28;20042;-81
2022/08/06 09:55:57;;;;;;;30.73;28.17;;;;;;;32.48;55.33;100670.09;5018986;28;20053;-81
2022/08/06 09:58:33;;;;;;;32.45;29.67;;;;;;;33.11;55.01;100671.97;5018290;28;20077;-80
2022/08/06 10:01:14;;;;;;;34.13;31.52;;;;;;;32.83;53.82;100667.41;5014129;28;20542;-81
2022/08/06 10:03:41;;;;;;;31.65;29.05;;;;;;;32.12;56.79;100662.88;5013812;28;20054;-79
2022/08/06 10:06:10;;;;;;;31.63;29.13;;;;;;;32.88;56.38;100665.53;5016499;28;20116;-79
2022/08/06 10:08:37;;;;;;;33.60;31.00;;;;;;;33.43;53.33;100667.13;5016722;28;20497;-81
2022/08/06 10:11:04;;;;;;;34.30;31.63;;;;;;;33.16;53.09;100668.13;5013348;28;20951;-80
2022/08/06 10:13:32;;;;;;;35.38;32.72;;;;;;;32.79;53.99;100665.72;5010192;28;20053;-79
2022/08/06 10:16:01;;;;;;;29.85;27.33;;;;;;;33.15;52.94;100664.56;5009914;28;20119;-81
2022/08/06 10:18:38;;;;;;;31.77;29.00;;;;;;;32.83;52.74;100670.16;5014098;28;20038;-79
2022/08/06 10:21:06;;;;;;;31.27;28.80;;;;;;;33.34;52.22;100661.03;5005061;28;20046;-80
2022/08/06 10:23:35;;;;;;;33.75;31.25;;;;;;;33.80;49.22;100652.94;5013722;28;20112;-78
2022/08/06 10:26:05;;;;;;;35.50;33.03;;;;;;;34.04;50.10;100653.75;5013705;28;20053;-79
2022/08/06 10:28:34;;;;;;;33.63;31.33;;;;;;;33.55;49.21;100646.94;5012981;28;20053;-80
2022/08/06 10:31:03;;;;;;;34.35;31.92;;;;;;;33.94;48.71;100650.41;5015386;28;20042;-78
2022/08/06 10:33:37;;;;;;;35.58;33.15;;;;;;;33.80;48.72;100652.13;5013904;28;20049;-78
2022/08/06 10:36:10;;;;;;;36.75;34.05;;;;;;;33.57;49.65;100639.13;5014798;28;20041;-79
2022/08/06 10:38:41;;;;;;;34.75;32.35;;;;;;;33.67;50.32;100645.97;5015856;28;20104;-78
2022/08/06 10:41:10;;;;;;;33.25;30.85;;;;;;;34.74;48.00;100634.06;5013684;28;20057;-79
2022/08/06 10:43:38;;;;;;;35.70;33.15;;;;;;;33.74;49.14;100638.66;5014002;28;20049;-79
2022/08/06 10:46:07;;;;;;;36.50;34.00;;;;;;;34.24;51.09;100637.97;5024550;28;20053;-79
2022/08/06 10:48:35;;;;;;;40.47;37.88;;;;;;;34.24;47.28;100635.22;5012235;28;20457;-78
2022/08/06 10:51:05;;;;;;;35.78;33.38;;;;;;;33.53;49.52;100632.75;5013310;28;20498;-80
2022/08/06 10:53:33;;;;;;;39.70;36.90;;;;;;;34.06;47.77;100627.44;5004475;28;20050;-78
2022/08/06 10:56:05;;;;;;;35.75;33.22;;;;;;;35.02;47.72;100617.09;5012919;28;20111;-80
2022/08/06 10:58:34;;;;;;;43.42;40.72;;;;;;;35.00;43.84;100624.94;5019323;28;20045;-82
2022/08/06 11:01:07;;;;;;;39.92;36.85;;;;;;;35.42;44.69;100625.88;5018031;28;20041;-79
2022/08/06 11:03:45;;;;;;;35.78;33.25;;;;;;;35.25;41.00;100622.53;5008084;28;20116;-77
2022/08/06 11:06:32;;;;;;;41.60;38.30;;;;;;;34.97;45.43;100616.63;5014234;28;20572;-78
2022/08/06 11:09:16;;;;;;;35.47;33.13;;;;;;;35.46;43.11;100623.94;5017218;28;20057;-77
2022/08/06 11:11:58;;;;;;;41.78;38.22;;;;;;;35.86;42.43;100614.09;5021012;28;20062;-78
2022/08/06 11:14:26;;;;;;;44.25;40.80;;;;;;;35.46;40.00;100618.41;5016790;28;20042;-77
2022/08/06 11:16:57;;;;;;;33.88;31.33;;;;;;;35.04;43.45;100616.72;5019848;28;20124;-78
2022/08/06 11:19:40;;;;;;;36.38;33.58;;;;;;;35.02;43.39;100605.25;5011066;28;20057;-78
2022/08/06 11:22:08;;;;;;;33.55;31.15;;;;;;;34.42;43.68;100617.00;5015421;28;20398;-77
2022/08/06 11:24:50;;;;;;;34.33;31.92;;;;;;;36.05;42.66;100613.13;5018379;28;20053;-80